Time;durP1;ratioP1;P1;durP2;ratioP2;P2;SDS_P1;SDS_P2;PMS_P1;PMS_P2;Temp;Humidity;BMP_temperature;BMP_pressure;BME280_temperature;BME280_humidity;BME280_pressure;Samples;Min_cycle;Max_cycle;Signal;HPM_P1;HPM_P2
2024/03/11 00:01:15;;;;;;;44.15;22.98;;;;;;;8.52;100.00;99423.00;4952935;28;20064;-67
2024/03/11 00:03:41;;;;;;;48.78;24.63;;;;;;;8.60;100.00;99423.91;4980380;28;20449;-68
2024/03/11 00:06:07;;;;;;;50.50;26.13;;;;;;;8.57;100.00;99425.06;4984619;28;20038;-68
2024/03/11 00:08:34;;;;;;;43.38;23.08;;;;;;;8.55;100.00;99425.25;4975806;28;20108;-67
2024/03/11 00:11:04;;;;;;;48.97;23.75;;;;;;;8.55;100.00;99429.59;4959420;28;20062;-68
2024/03/11 00:13:33;;;;;;;45.20;23.20;;;;;;;8.52;100.00;99424.78;4960069;28;20073;-68
2024/03/11 00:16:02;;;;;;;45.00;22.95;;;;;;;8.53;100.00;99434.13;4976631;28;20678;-67
2024/03/11 00:18:29;;;;;;;51.50;26.23;;;;;;;8.54;100.00;99431.38;4960237;28;20038;-68
2024/03/11 00:20:58;;;;;;;50.45;24.92;;;;;;;8.53;100.00;99432.38;4986347;28;20077;-68
2024/03/11 00:23:23;;;;;;;48.17;24.83;;;;;;;8.51;100.00;99421.41;4986086;28;20620;-68
2024/03/11 00:25:49;;;;;;;53.40;27.77;;;;;;;8.52;100.00;99429.97;4968327;28;20038;-68
2024/03/11 00:28:14;;;;;;;50.95;26.08;;;;;;;8.51;100.00;99423.16;4965637;28;20038;-68
2024/03/11 00:30:40;;;;;;;49.97;26.17;;;;;;;8.51;100.00;99433.50;4985682;28;20521;-67
2024/03/11 00:33:09;;;;;;;48.72;25.33;;;;;;;8.49;100.00;99435.47;4969175;28;20066;-68
2024/03/11 00:35:35;;;;;;;51.45;26.55;;;;;;;8.53;100.00;99439.28;4982765;28;20058;-67
2024/03/11 00:38:02;;;;;;;51.10;26.55;;;;;;;8.52;100.00;99442.88;4980571;28;20042;-68
2024/03/11 00:40:27;;;;;;;54.83;27.90;;;;;;;8.47;100.00;99440.00;4982649;28;20125;-67
2024/03/11 00:42:53;;;;;;;52.00;25.77;;;;;;;8.45;100.00;99441.97;4982821;28;20042;-68
2024/03/11 00:45:18;;;;;;;48.85;25.35;;;;;;;8.44;100.00;99442.94;4969982;28;20038;-67
2024/03/11 00:47:45;;;;;;;53.42;26.92;;;;;;;8.42;100.00;99439.72;4980561;28;20047;-67
2024/03/11 00:50:12;;;;;;;51.80;27.48;;;;;;;8.42;100.00;99448.28;4970553;28;20038;-68
2024/03/11 00:52:42;;;;;;;54.58;26.92;;;;;;;8.37;100.00;99442.81;4983641;28;20026;-68
2024/03/11 00:55:12;;;;;;;58.22;29.35;;;;;;;8.34;100.00;99441.38;4979651;28;20066;-69
2024/03/11 00:57:45;;;;;;;53.72;28.02;;;;;;;8.33;100.00;99446.72;4978432;28;20075;-69
2024/03/11 01:00:11;;;;;;;65.13;30.80;;;;;;;8.30;100.00;99449.63;4982992;28;20030;-69
2024/03/11 01:02:38;;;;;;;57.70;28.15;;;;;;;8.30;100.00;99452.22;4962959;28;20073;-70
2024/03/11 01:05:05;;;;;;;57.70;28.65;;;;;;;8.31;100.00;99451.25;4985788;28;20296;-68
2024/03/11 01:07:32;;;;;;;56.17;27.73;;;;;;;8.32;100.00;99456.22;4982572;28;20128;-68
2024/03/11 01:09:57;;;;;;;53.90;28.50;;;;;;;8.34;100.00;99456.88;4984043;28;20101;-68
2024/03/11 01:12:23;;;;;;;53.92;27.20;;;;;;;8.37;100.00;99455.72;4967462;28;20491;-67
2024/03/11 01:14:51;;;;;;;52.80;28.63;;;;;;;8.37;100.00;99461.69;4966953;28;20052;-68
2024/03/11 01:17:17;;;;;;;52.38;27.85;;;;;;;8.39;100.00;99459.72;4969516;28;20058;-68
2024/03/11 01:19:44;;;;;;;49.90;27.55;;;;;;;8.39;100.00;99456.34;4963272;28;20074;-68
2024/03/11 01:22:12;;;;;;;62.25;30.95;;;;;;;8.36;100.00;99461.84;4982548;28;20027;-67
2024/03/11 01:24:39;;;;;;;59.60;30.67;;;;;;;8.31;100.00;99462.38;4966658;28;20042;-67
2024/03/11 01:27:10;;;;;;;57.17;30.52;;;;;;;8.30;100.00;99465.13;4965257;28;20046;-68
2024/03/11 01:29:39;;;;;;;55.03;29.33;;;;;;;8.29;100.00;99466.94;4987146;28;20686;-68
2024/03/11 01:32:06;;;;;;;54.05;29.13;;;;;;;8.28;100.00;99472.25;4971309;28;20495;-67
2024/03/11 01:34:33;;;;;;;57.10;29.27;;;;;;;8.28;100.00;99464.50;4982901;28;20124;-68
2024/03/11 01:37:00;;;;;;;58.58;31.13;;;;;;;8.26;100.00;99467.25;4992389;28;20031;-68
2024/03/11 01:39:27;;;;;;;57.90;29.00;;;;;;;8.25;100.00;99468.25;4989277;28;20039;-67
2024/03/11 01:41:53;;;;;;;55.50;29.70;;;;;;;8.24;100.00;99469.22;4973673;28;20277;-68
2024/03/11 01:44:19;;;;;;;60.25;30.20;;;;;;;8.23;100.00;99467.63;4990684;28;20046;-68
2024/03/11 01:46:47;;;;;;;59.45;31.38;;;;;;;8.22;100.00;99472.97;4988782;28;20033;-67
2024/03/11 01:49:16;;;;;;;57.03;30.40;;;;;;;8.21;100.00;99463.59;4989321;28;20039;-68
2024/03/11 01:51:42;;;;;;;60.65;30.25;;;;;;;8.19;100.00;99463.75;4994678;28;20400;-68
2024/03/11 01:54:10;;;;;;;65.00;31.98;;;;;;;8.18;100.00;99462.16;4983454;28;20031;-67
2024/03/11 01:56:37;;;;;;;63.25;30.42;;;;;;;8.15;100.00;99462.50;4986322;28;20038;-67
2024/03/11 01:59:03;;;;;;;58.53;30.17;;;;;;;8.14;100.00;99461.72;4986718;28;20050;-68
2024/03/11 02:01:29;;;;;;;62.17;32.45;;;;;;;8.15;100.00;99455.56;4982923;28;20356;-68
2024/03/11 02:03:55;;;;;;;53.30;28.90;;;;;;;8.11;100.00;99451.72;4995575;28;20030;-68
2024/03/11 02:06:21;;;;;;;65.38;33.28;;;;;;;8.09;100.00;99456.25;4993474;28;20057;-68
2024/03/11 02:08:46;;;;;;;66.13;32.85;;;;;;;8.07;100.00;99453.03;4993186;28;20141;-68
2024/03/11 02:11:12;;;;;;;62.42;31.00;;;;;;;8.08;100.00;99453.84;4991024;28;20037;-68
2024/03/11 02:13:38;;;;;;;65.38;31.98;;;;;;;8.05;100.00;99452.41;4973979;28;20132;-68
2024/03/11 02:16:04;;;;;;;69.40;34.58;;;;;;;8.02;100.00;99455.31;4972347;28;20026;-68
2024/03/11 02:18:29;;;;;;;70.57;35.05;;;;;;;8.03;100.00;99459.53;4983787;28;20038;-68
2024/03/11 02:20:56;;;;;;;72.68;34.53;;;;;;;7.97;100.00;99447.31;4985889;28;20108;-68
2024/03/11 02:23:22;;;;;;;67.97;33.00;;;;;;;7.91;100.00;99460.88;4952509;28;20121;-68
2024/03/11 02:25:48;;;;;;;68.93;34.47;;;;;;;7.90;100.00;99459.28;4983215;28;20035;-67
2024/03/11 02:28:13;;;;;;;69.38;35.72;;;;;;;7.95;100.00;99452.63;4987449;28;20049;-68
2024/03/11 02:30:39;;;;;;;72.75;36.53;;;;;;;7.91;100.00;99455.72;4989625;28;20037;-68
2024/03/11 02:33:05;;;;;;;78.38;38.95;;;;;;;7.97;100.00;99462.81;4968818;28;20045;-68
2024/03/11 02:35:31;;;;;;;72.40;35.95;;;;;;;7.90;100.00;99465.25;4987833;28;20037;-68
2024/03/11 02:37:56;;;;;;;73.78;38.40;;;;;;;7.81;100.00;99458.53;4990204;28;20042;-68
2024/03/11 02:40:26;;;;;;;74.97;37.22;;;;;;;7.75;100.00;99457.44;4988499;28;20026;-68
2024/03/11 02:42:56;;;;;;;76.00;38.42;;;;;;;7.73;100.00;99459.38;4988484;28;20034;-68
2024/03/11 02:45:25;;;;;;;77.13;37.75;;;;;;;7.79;100.00;99461.28;4991818;28;20045;-68
2024/03/11 02:47:51;;;;;;;78.05;38.38;;;;;;;7.73;100.00;99468.91;4954885;28;20072;-68
2024/03/11 02:50:17;;;;;;;79.90;42.10;;;;;;;7.82;100.00;99462.72;4954053;28;20489;-68
2024/03/11 02:52:42;;;;;;;77.90;38.10;;;;;;;7.78;100.00;99464.84;4971669;28;20054;-68
2024/03/11 02:55:13;;;;;;;81.88;38.95;;;;;;;7.79;100.00;99463.06;4990738;28;20030;-68
2024/03/11 02:57:39;;;;;;;77.25;38.85;;;;;;;7.72;100.00;99467.28;4973703;28;20113;-68
2024/03/11 03:00:10;;;;;;;76.18;37.75;;;;;;;7.75;100.00;99466.94;4988583;28;20106;-68
2024/03/11 03:02:39;;;;;;;81.80;40.20;;;;;;;7.74;100.00;99458.41;4986874;28;20038;-68
2024/03/11 03:05:04;;;;;;;84.88;40.30;;;;;;;7.78;100.00;99464.84;4953055;28;20031;-68
2024/03/11 03:07:30;;;;;;;81.18;40.03;;;;;;;7.75;100.00;99462.59;4972735;28;20030;-67
2024/03/11 03:09:55;;;;;;;82.47;39.95;;;;;;;7.83;100.00;99459.16;4991241;28;20085;-67
2024/03/11 03:12:21;;;;;;;80.50;39.63;;;;;;;7.70;100.00;99462.28;4969125;28;20652;-68
2024/03/11 03:14:46;;;;;;;84.53;41.33;;;;;;;7.67;100.00;99464.44;4987509;28;20524;-68
2024/03/11 03:17:12;;;;;;;79.30;39.95;;;;;;;7.66;100.00;99465.38;4970238;28;20034;-68
2024/03/11 03:19:37;;;;;;;87.35;42.78;;;;;;;7.69;100.00;99463.28;4958600;28;20093;-68
2024/03/11 03:22:03;;;;;;;87.57;42.63;;;;;;;7.66;100.00;99467.97;4985008;28;20378;-68
2024/03/11 03:24:29;;;;;;;88.28;42.35;;;;;;;7.66;100.00;99467.97;4987383;28;20046;-68
2024/03/11 03:26:54;;;;;;;85.97;43.58;;;;;;;7.64;100.00;99462.19;4986778;28;20169;-68
2024/03/11 03:29:20;;;;;;;87.88;43.40;;;;;;;7.57;100.00;99468.03;4971266;28;20627;-68
2024/03/11 03:31:48;;;;;;;91.03;44.08;;;;;;;7.50;100.00;99464.50;4983431;28;20042;-68
2024/03/11 03:34:13;;;;;;;97.43;45.47;;;;;;;7.56;100.00;99466.41;4984069;28;20045;-68
2024/03/11 03:36:39;;;;;;;87.00;42.63;;;;;;;7.58;100.00;99459.28;4983090;28;20026;-68
2024/03/11 03:39:08;;;;;;;86.72;43.00;;;;;;;7.49;100.00;99462.09;4970402;28;20039;-68
2024/03/11 03:41:36;;;;;;;92.47;45.08;;;;;;;7.52;100.00;99470.28;4952548;28;20084;-68
2024/03/11 03:44:02;;;;;;;92.80;43.35;;;;;;;7.51;100.00;99470.44;4985641;28;20034;-68
2024/03/11 03:46:29;;;;;;;90.70;45.17;;;;;;;7.52;100.00;99467.72;4986241;28;20042;-68
2024/03/11 03:48:54;;;;;;;93.32;45.38;;;;;;;7.48;100.00;99465.63;4984087;28;20051;-68
2024/03/11 03:51:20;;;;;;;99.97;46.50;;;;;;;7.39;100.00;99459.72;4986981;28;20135;-68
2024/03/11 03:53:45;;;;;;;95.47;46.10;;;;;;;7.43;100.00;99462.75;4967165;28;20184;-68
2024/03/11 03:56:11;;;;;;;91.57;44.90;;;;;;;7.36;100.00;99463.41;4986945;28;20515;-68
2024/03/11 03:58:37;;;;;;;97.65;46.90;;;;;;;7.40;100.00;99472.44;4984799;28;20037;-67
2024/03/11 04:01:03;;;;;;;93.43;46.65;;;;;;;7.42;100.00;99469.69;4963503;28;20072;-68
2024/03/11 04:03:29;;;;;;;93.32;46.80;;;;;;;7.35;100.00;99469.56;4981766;28;20041;-68
2024/03/11 04:05:54;;;;;;;95.35;46.90;;;;;;;7.37;100.00;99459.88;4970880;28;20589;-68
2024/03/11 04:08:20;;;;;;;90.68;47.60;;;;;;;7.30;100.00;99469.25;4986927;28;20692;-68
2024/03/11 04:10:46;;;;;;;102.80;47.25;;;;;;;7.46;100.00;99465.00;4970098;28;20041;-68
2024/03/11 04:13:12;;;;;;;93.00;46.67;;;;;;;7.40;100.00;99469.03;4984084;28;20030;-68
2024/03/11 04:15:40;;;;;;;96.20;46.53;;;;;;;7.37;100.00;99465.03;4971055;28;20034;-68
2024/03/11 04:18:06;;;;;;;96.68;47.53;;;;;;;7.36;100.00;99471.16;4969246;28;20046;-68
2024/03/11 04:20:32;;;;;;;102.28;47.85;;;;;;;7.44;100.00;99467.75;5024857;23;20093;-76
2024/03/11 04:23:02;;;;;;;94.07;44.42;;;;;;;7.41;100.00;99476.63;5063837;28;20067;-76
2024/03/11 04:25:31;;;;;;;95.97;44.95;;;;;;;7.49;100.00;99473.19;5063987;28;20027;-76
2024/03/11 04:28:00;;;;;;;102.88;46.88;;;;;;;7.45;100.00;99477.09;5065842;28;20041;-76
2024/03/11 04:30:30;;;;;;;96.35;46.92;;;;;;;7.35;100.00;99485.03;5062571;28;21413;-76
2024/03/11 04:32:58;;;;;;;97.18;46.78;;;;;;;7.39;100.00;99486.28;5046285;28;20104;-76
2024/03/11 04:35:27;;;;;;;93.97;45.97;;;;;;;7.41;100.00;99475.81;5047819;28;20087;-75
2024/03/11 04:38:31;;;;;;;95.68;45.53;;;;;;;7.40;100.00;99487.91;5041931;28;20040;-76
2024/03/11 04:40:56;;;;;;;94.43;46.45;;;;;;;7.23;100.00;99488.91;5016057;28;20067;-76
2024/03/11 04:43:22;;;;;;;94.65;45.58;;;;;;;7.26;100.00;99483.44;5063650;28;20090;-75
2024/03/11 04:45:54;;;;;;;102.72;48.17;;;;;;;7.35;100.00;99489.38;5034871;28;20059;-76
2024/03/11 04:48:20;;;;;;;102.63;48.38;;;;;;;7.24;100.00;99494.91;5049752;28;20123;-75
2024/03/11 04:50:47;;;;;;;104.05;48.97;;;;;;;7.20;100.00;99492.66;5032158;28;20136;-75
2024/03/11 04:53:15;;;;;;;92.57;46.95;;;;;;;7.21;100.00;99491.69;5034684;28;20045;-75
2024/03/11 04:55:42;;;;;;;98.38;46.78;;;;;;;7.20;100.00;99489.28;5037445;28;20036;-75
2024/03/11 04:58:08;;;;;;;97.70;46.80;;;;;;;7.17;100.00;99499.91;5033656;28;20044;-76
2024/03/11 05:00:34;;;;;;;103.90;48.83;;;;;;;7.19;100.00;99501.34;5053555;28;20028;-75
2024/03/11 05:03:04;;;;;;;97.20;47.20;;;;;;;7.28;100.00;99499.56;5023994;28;20101;-75
2024/03/11 05:05:37;;;;;;;101.80;49.42;;;;;;;7.21;100.00;99502.00;5063885;28;20112;-75
2024/03/11 05:08:10;;;;;;;100.68;47.80;;;;;;;7.19;100.00;99506.50;5033258;28;20036;-75
2024/03/11 05:10:45;;;;;;;106.95;48.72;;;;;;;7.18;100.00;99499.75;5072488;28;20044;-75
2024/03/11 05:13:10;;;;;;;109.28;49.70;;;;;;;7.16;100.00;99518.94;5063224;28;20040;-75
2024/03/11 05:15:36;;;;;;;104.38;50.05;;;;;;;7.11;100.00;99516.84;5056637;28;20028;-80
2024/03/11 05:18:02;;;;;;;105.72;48.88;;;;;;;7.07;100.00;99513.00;5053032;28;20147;-76
2024/03/11 05:20:31;;;;;;;102.07;48.28;;;;;;;7.12;100.00;99513.31;5054186;28;20125;-75
2024/03/11 05:22:56;;;;;;;104.15;49.50;;;;;;;7.11;100.00;99523.78;5054644;28;20119;-76
2024/03/11 05:25:25;;;;;;;102.47;49.60;;;;;;;7.14;100.00;99521.69;5052563;28;20123;-75
2024/03/11 05:27:51;;;;;;;105.70;48.92;;;;;;;7.09;100.00;99526.50;5046964;28;20040;-75
2024/03/11 05:30:17;;;;;;;109.60;51.15;;;;;;;7.05;100.00;99527.00;5071809;28;20942;-76
2024/03/11 05:32:43;;;;;;;112.47;51.50;;;;;;;7.07;100.00;99525.88;5053047;28;20089;-75
2024/03/11 05:35:09;;;;;;;99.32;49.55;;;;;;;7.04;100.00;99523.63;5037278;28;20020;-75
2024/03/11 05:37:36;;;;;;;108.95;50.67;;;;;;;7.04;100.00;99520.25;5063647;28;20033;-76
2024/03/11 05:40:11;;;;;;;107.45;49.53;;;;;;;7.15;100.00;99522.47;5049125;28;20052;-75
2024/03/11 05:42:41;;;;;;;106.45;50.33;;;;;;;7.05;100.00;99520.09;5033354;28;20032;-75
2024/03/11 05:45:12;;;;;;;103.63;47.88;;;;;;;7.12;100.00;99528.78;5052928;28;20166;-75
2024/03/11 05:47:45;;;;;;;108.30;49.35;;;;;;;7.10;100.00;99532.47;5067058;28;20525;-76
2024/03/11 05:50:16;;;;;;;98.90;47.58;;;;;;;7.08;100.00;99531.81;5048756;28;20025;-75
2024/03/11 05:52:44;;;;;;;99.97;47.55;;;;;;;7.06;100.00;99533.75;5066715;28;20040;-75
2024/03/11 05:55:16;;;;;;;101.35;46.03;;;;;;;7.09;100.00;99541.19;5049504;28;20048;-75
2024/03/11 05:57:48;;;;;;;98.32;47.25;;;;;;;7.07;100.00;99537.97;5047027;28;20162;-76
2024/03/11 06:00:17;;;;;;;99.73;46.70;;;;;;;7.03;100.00;99540.06;5056120;28;20036;-75
2024/03/11 06:02:44;;;;;;;93.47;45.08;;;;;;;7.07;100.00;99536.19;5049923;28;20124;-75
2024/03/11 06:05:10;;;;;;;101.35;47.92;;;;;;;7.03;100.00;99532.34;5051741;28;20059;-76
2024/03/11 06:07:36;;;;;;;92.53;45.58;;;;;;;6.94;100.00;99536.69;5051495;28;20056;-76
2024/03/11 06:10:03;;;;;;;88.78;44.10;;;;;;;7.02;100.00;99538.44;5053526;28;20175;-76
2024/03/11 06:12:29;;;;;;;90.57;45.60;;;;;;;6.99;100.00;99533.63;5055699;28;20042;-76
2024/03/11 06:14:57;;;;;;;100.43;45.55;;;;;;;7.01;100.00;99539.44;5051398;28;20037;-76
2024/03/11 06:17:29;;;;;;;89.80;43.50;;;;;;;6.97;100.00;99546.69;5051946;28;20032;-76
2024/03/11 06:19:57;;;;;;;94.95;46.55;;;;;;;7.05;100.00;99556.16;5033469;28;20039;-75
2024/03/11 06:22:23;;;;;;;93.55;44.30;;;;;;;7.04;100.00;99551.16;5057788;28;20044;-76
2024/03/11 06:24:49;;;;;;;96.13;45.25;;;;;;;7.04;100.00;99546.81;5045510;28;20037;-77
2024/03/11 06:27:15;;;;;;;96.88;45.22;;;;;;;7.09;100.00;99548.91;5041240;28;20028;-75
2024/03/11 06:29:42;;;;;;;93.55;44.53;;;;;;;7.10;100.00;99542.78;5065876;28;20422;-75
2024/03/11 06:32:08;;;;;;;95.03;45.78;;;;;;;7.09;100.00;99547.13;5051743;28;20071;-76
2024/03/11 06:34:34;;;;;;;87.68;42.08;;;;;;;7.02;100.00;99548.75;5045668;28;20065;-76
2024/03/11 06:37:00;;;;;;;95.35;44.17;;;;;;;7.06;100.00;99552.59;5034393;28;20550;-76
2024/03/11 06:39:27;;;;;;;103.00;47.97;;;;;;;7.05;100.00;99558.75;5037173;28;20048;-76
2024/03/11 06:41:53;;;;;;;86.88;44.20;;;;;;;7.06;100.00;99555.19;5068121;28;20069;-75
2024/03/11 06:44:18;;;;;;;91.93;44.60;;;;;;;7.06;100.00;99557.75;5048650;28;20041;-76
2024/03/11 06:46:47;;;;;;;91.85;44.67;;;;;;;7.02;100.00;99566.78;5068532;28;20020;-75
2024/03/11 06:49:13;;;;;;;90.32;45.28;;;;;;;6.96;100.00;99570.03;5065707;28;20097;-75
2024/03/11 06:51:40;;;;;;;97.63;45.72;;;;;;;7.00;100.00;99561.00;5033881;28;20067;-76
2024/03/11 06:54:06;;;;;;;94.75;45.55;;;;;;;7.08;100.00;99558.41;5042542;28;20056;-76
2024/03/11 06:56:32;;;;;;;95.57;46.58;;;;;;;7.15;100.00;99559.38;5067081;28;20028;-75
2024/03/11 06:59:00;;;;;;;92.35;45.30;;;;;;;7.13;100.00;99566.47;5038416;28;20048;-76
2024/03/11 07:01:29;;;;;;;85.75;43.53;;;;;;;7.08;100.00;99562.75;5052409;28;20047;-75
2024/03/11 07:03:55;;;;;;;91.75;44.95;;;;;;;7.16;100.00;99560.19;5066187;28;20067;-76
2024/03/11 07:06:24;;;;;;;84.38;42.40;;;;;;;7.11;100.00;99562.44;5035804;28;20021;-75
2024/03/11 07:08:50;;;;;;;88.57;43.92;;;;;;;7.10;100.00;99565.97;5051161;28;20456;-75
2024/03/11 07:11:15;;;;;;;79.53;43.22;;;;;;;7.09;100.00;99561.81;5048060;28;20027;-75
2024/03/11 07:13:42;;;;;;;80.25;40.97;;;;;;;7.09;100.00;99560.03;5063599;28;20029;-76
2024/03/11 07:16:11;;;;;;;87.53;43.92;;;;;;;7.02;100.00;99569.38;5066696;28;20021;-76
2024/03/11 07:18:41;;;;;;;80.03;41.15;;;;;;;7.12;100.00;99582.09;5043388;28;20071;-77
2024/03/11 07:21:12;;;;;;;78.80;41.15;;;;;;;7.08;100.00;99580.81;5033736;28;20116;-75
2024/03/11 07:23:38;;;;;;;89.30;41.92;;;;;;;7.11;100.00;99575.34;5047147;28;20358;-75
2024/03/11 07:26:10;;;;;;;77.82;40.53;;;;;;;7.16;100.00;99571.31;5049112;28;20049;-75
2024/03/11 07:28:36;;;;;;;76.90;41.42;;;;;;;7.19;100.00;99575.31;5050900;28;20051;-74
2024/03/11 07:31:01;;;;;;;81.43;39.97;;;;;;;7.14;100.00;99573.25;5068231;28;20040;-75
2024/03/11 07:33:27;;;;;;;79.20;40.40;;;;;;;7.13;100.00;99583.72;5065594;28;20092;-76
2024/03/11 07:35:53;;;;;;;83.55;42.30;;;;;;;7.15;100.00;99580.00;5030693;28;20036;-75
2024/03/11 07:38:23;;;;;;;79.25;41.70;;;;;;;7.11;100.00;99588.22;5053422;28;20036;-75
2024/03/11 07:40:49;;;;;;;74.63;39.20;;;;;;;7.14;100.00;99591.28;5048610;28;20441;-76
2024/03/11 07:43:15;;;;;;;79.38;41.15;;;;;;;7.24;100.00;99593.69;5029177;28;20032;-76
2024/03/11 07:45:41;;;;;;;75.22;41.08;;;;;;;7.24;100.00;99591.09;5049707;28;20036;-75
2024/03/11 07:48:14;;;;;;;74.05;38.83;;;;;;;7.20;100.00;99593.19;5049665;28;20598;-75
2024/03/11 07:50:44;;;;;;;70.82;38.65;;;;;;;7.21;100.00;99597.41;5052719;28;20024;-76
2024/03/11 07:53:12;;;;;;;71.03;38.45;;;;;;;7.17;100.00;99588.34;5043734;28;20074;-76
2024/03/11 07:55:39;;;;;;;74.80;40.08;;;;;;;7.18;100.00;99591.78;5052628;28;20509;-76
2024/03/11 07:58:04;;;;;;;73.93;41.67;;;;;;;7.18;100.00;99595.13;5050608;28;20044;-76
2024/03/11 08:00:30;;;;;;;76.32;40.75;;;;;;;7.14;100.00;99604.16;5029894;28;20757;-76
2024/03/11 08:02:58;;;;;;;75.07;40.70;;;;;;;7.22;100.00;99613.66;5049217;28;20040;-76
2024/03/11 08:05:25;;;;;;;73.55;39.40;;;;;;;7.25;100.00;99615.09;5048911;28;20035;-77
2024/03/11 08:07:50;;;;;;;77.35;40.97;;;;;;;7.33;100.00;99617.69;5058223;28;20047;-76
2024/03/11 08:10:17;;;;;;;74.65;39.33;;;;;;;7.34;100.00;99622.66;5046360;28;20032;-75
2024/03/11 08:12:47;;;;;;;77.50;41.42;;;;;;;7.25;100.00;99628.78;5053745;28;20040;-76
2024/03/11 08:15:14;;;;;;;70.95;39.25;;;;;;;7.26;100.00;99627.03;5051570;28;20081;-76
2024/03/11 08:17:46;;;;;;;78.15;39.33;;;;;;;7.25;100.00;99633.16;5049542;28;20055;-76
2024/03/11 08:20:16;;;;;;;75.40;40.13;;;;;;;7.24;100.00;99631.56;5035315;28;20101;-75
2024/03/11 08:22:57;;;;;;;76.53;40.47;;;;;;;7.30;100.00;99633.47;5033201;28;20648;-76
2024/03/11 08:25:23;;;;;;;72.57;40.20;;;;;;;7.27;100.00;99639.78;5063964;28;20073;-76
2024/03/11 08:27:52;;;;;;;74.78;39.53;;;;;;;7.28;100.00;99641.38;5028164;28;20044;-76
2024/03/11 08:30:18;;;;;;;81.22;41.35;;;;;;;7.28;100.00;99638.00;5051316;28;20037;-77
2024/03/11 08:32:47;;;;;;;77.90;40.92;;;;;;;7.31;100.00;99641.06;5054233;28;20493;-75
2024/03/11 08:35:14;;;;;;;80.25;41.38;;;;;;;7.30;100.00;99641.22;5065473;28;20029;-75
2024/03/11 08:37:41;;;;;;;73.82;38.67;;;;;;;7.36;100.00;99648.28;5052198;28;20027;-76
2024/03/11 08:40:08;;;;;;;74.05;38.10;;;;;;;7.43;100.00;99648.47;5051386;28;20028;-76
2024/03/11 08:42:35;;;;;;;73.35;39.72;;;;;;;7.39;100.00;99651.34;5047320;28;20033;-75
2024/03/11 08:45:01;;;;;;;68.90;36.97;;;;;;;7.31;100.00;99651.38;5069962;28;20078;-76
2024/03/11 08:47:27;;;;;;;73.10;38.00;;;;;;;7.39;100.00;99658.31;5053254;28;20048;-75
2024/03/11 08:49:53;;;;;;;71.60;38.55;;;;;;;7.37;100.00;99652.50;5073060;28;20036;-76
2024/03/11 08:52:19;;;;;;;69.80;37.10;;;;;;;7.38;100.00;99656.69;5054092;28;20029;-75
2024/03/11 08:54:44;;;;;;;73.80;40.03;;;;;;;7.39;100.00;99656.53;5055469;28;20511;-76
2024/03/11 08:57:13;;;;;;;78.40;39.95;;;;;;;7.44;100.00;99663.78;5072131;28;20074;-76
2024/03/11 08:59:39;;;;;;;76.53;40.58;;;;;;;7.50;100.00;99667.47;5030139;28;20037;-76
2024/03/11 09:02:07;;;;;;;74.95;37.80;;;;;;;7.42;100.00;99663.13;5050826;28;20041;-76
2024/03/11 09:04:33;;;;;;;73.10;39.70;;;;;;;7.47;100.00;99671.19;5048218;28;20036;-76
2024/03/11 09:06:58;;;;;;;76.50;39.45;;;;;;;7.44;100.00;99670.69;5067159;28;20043;-76
2024/03/11 09:09:25;;;;;;;71.78;39.00;;;;;;;7.46;100.00;99671.34;5033957;28;20033;-75
2024/03/11 09:11:57;;;;;;;77.28;39.53;;;;;;;7.45;100.00;99677.47;5050196;28;20032;-76
2024/03/11 09:14:27;;;;;;;77.55;40.38;;;;;;;7.45;100.00;99683.44;5052421;28;20071;-75
2024/03/11 09:16:58;;;;;;;77.25;40.70;;;;;;;7.57;100.00;99684.72;5070267;28;20024;-76
2024/03/11 09:19:25;;;;;;;80.57;41.92;;;;;;;7.62;100.00;99683.41;5050661;28;20032;-74
2024/03/11 09:21:51;;;;;;;79.10;41.08;;;;;;;7.63;100.00;99693.59;5036748;28;20028;-75
2024/03/11 09:24:17;;;;;;;80.22;41.13;;;;;;;7.59;100.00;99687.94;5053190;28;20368;-75
2024/03/11 09:26:44;;;;;;;71.25;36.83;;;;;;;7.58;100.00;99695.84;5037341;28;20036;-76
2024/03/11 09:29:11;;;;;;;75.07;38.88;;;;;;;7.62;100.00;99699.69;5065898;28;20036;-76
2024/03/11 09:31:37;;;;;;;74.88;39.90;;;;;;;7.56;100.00;99698.56;5068868;28;20107;-75
2024/03/11 09:34:03;;;;;;;73.07;39.38;;;;;;;7.56;100.00;99703.75;5067648;28;20384;-75
2024/03/11 09:36:31;;;;;;;70.97;37.35;;;;;;;7.55;100.00;99703.91;5036919;28;20039;-75
2024/03/11 09:38:57;;;;;;;75.63;41.42;;;;;;;7.64;100.00;99707.28;5071304;28;20032;-75
2024/03/11 09:41:25;;;;;;;72.70;38.55;;;;;;;7.62;100.00;99716.97;5061776;28;20632;-75
2024/03/11 09:43:51;;;;;;;76.22;40.60;;;;;;;7.60;100.00;99715.34;5052693;28;20515;-75
2024/03/11 09:46:21;;;;;;;76.68;38.92;;;;;;;7.64;100.00;99722.75;5043039;28;20033;-76
2024/03/11 09:48:51;;;;;;;68.55;37.20;;;;;;;7.62;100.00;99722.13;5052469;28;20044;-75
2024/03/11 09:51:24;;;;;;;73.13;39.58;;;;;;;7.59;100.00;99733.56;5070258;28;20415;-76
2024/03/11 09:53:58;;;;;;;72.68;37.35;;;;;;;7.58;100.00;99730.19;5067123;28;20119;-75
2024/03/11 09:56:24;;;;;;;74.22;37.85;;;;;;;7.65;100.00;99737.25;5069293;28;20126;-75
2024/03/11 09:58:59;;;;;;;67.80;36.85;;;;;;;7.63;100.00;99734.03;5068024;28;20633;-76
2024/03/11 10:01:30;;;;;;;65.32;35.13;;;;;;;7.58;100.00;99734.53;5057721;28;20039;-76
2024/03/11 10:04:00;;;;;;;66.65;35.45;;;;;;;7.58;100.00;99731.97;5054842;28;20036;-76
2024/03/11 10:06:30;;;;;;;64.57;35.45;;;;;;;7.63;100.00;99731.47;5064215;28;20036;-76
2024/03/11 10:08:55;;;;;;;71.68;39.10;;;;;;;7.61;100.00;99731.66;5068339;28;20037;-75
2024/03/11 10:11:24;;;;;;;68.63;36.42;;;;;;;7.66;100.00;99741.47;5067997;28;20043;-76
2024/03/11 10:13:56;;;;;;;71.10;37.15;;;;;;;7.66;100.00;99739.69;5056390;28;20032;-76
2024/03/11 10:16:26;;;;;;;66.20;36.03;;;;;;;7.66;100.00;99746.63;5069362;28;20085;-76
2024/03/11 10:19:11;;;;;;;69.53;36.75;;;;;;;7.61;100.00;99752.28;5065453;28;20147;-76
2024/03/11 10:21:40;;;;;;;64.05;35.90;;;;;;;7.63;100.00;99750.34;5063993;28;20036;-75
2024/03/11 10:24:08;;;;;;;67.90;35.60;;;;;;;7.61;100.00;99752.28;5060189;28;20036;-76
2024/03/11 10:26:40;;;;;;;60.80;32.03;;;;;;;7.59;100.00;99749.88;5027952;28;20033;-76
2024/03/11 10:29:09;;;;;;;62.40;32.90;;;;;;;7.59;100.00;99755.03;5066166;28;20036;-75
2024/03/11 10:31:35;;;;;;;64.45;33.05;;;;;;;7.63;100.00;99755.50;5067387;28;20495;-76
2024/03/11 10:34:29;;;;;;;60.85;33.22;;;;;;;7.59;100.00;99761.94;5054713;28;20124;-75
2024/03/11 10:36:57;;;;;;;63.00;32.30;;;;;;;7.55;100.00;99760.66;5053073;28;20052;-76
2024/03/11 10:41:50;;;;;;;62.03;33.17;;;;;;;7.64;100.00;99762.25;5067342;28;20032;-75
2024/03/11 10:44:19;;;;;;;57.33;29.98;;;;;;;7.54;100.00;99766.78;5067939;28;20169;-76
2024/03/11 10:46:45;;;;;;;64.65;32.28;;;;;;;7.55;100.00;99761.47;5049915;28;20032;-74
2024/03/11 10:49:12;;;;;;;60.63;31.20;;;;;;;7.52;100.00;99776.47;5051443;28;20089;-76
2024/03/11 10:51:45;;;;;;;65.43;31.90;;;;;;;7.66;100.00;99775.00;5057181;28;20386;-75
2024/03/11 10:54:28;;;;;;;66.57;35.42;;;;;;;7.55;100.00;99770.97;5063759;28;20107;-76
2024/03/11 10:57:01;;;;;;;63.15;32.25;;;;;;;7.44;100.00;99784.19;5066604;28;20494;-76
2024/03/11 10:59:34;;;;;;;54.78;28.95;;;;;;;7.41;100.00;99780.16;5061729;28;20032;-76
2024/03/11 11:02:04;;;;;;;57.42;30.13;;;;;;;7.41;100.00;99785.31;5056904;28;20455;-75
2024/03/11 11:04:33;;;;;;;60.17;30.92;;;;;;;7.43;100.00;99793.69;5041007;28;20041;-75
2024/03/11 11:07:00;;;;;;;64.32;31.30;;;;;;;7.46;100.00;99792.56;5050129;28;20036;-75
2024/03/11 11:09:27;;;;;;;63.35;32.85;;;;;;;7.49;100.00;99800.78;5057216;28;20068;-76
2024/03/11 11:11:54;;;;;;;63.88;32.95;;;;;;;7.53;100.00;99802.09;5049196;28;20062;-76
2024/03/11 11:14:27;;;;;;;66.72;33.90;;;;;;;7.54;100.00;99800.34;5048373;28;20051;-76
2024/03/11 11:16:53;;;;;;;;;;;;;;;7.54;100.00;99811.44;5055701;28;20032;-76
2024/03/11 11:19:23;;;;;;;66.38;32.55;;;;;;;7.56;100.00;99813.88;5035578;28;19994;-76
2024/03/11 11:21:53;;;;;;;70.85;34.42;;;;;;;7.55;100.00;99810.50;5039808;28;20033;-75